createdAt,value
2022-12-08T00:01:56.975Z,7.85
2022-12-08T00:04:26.737Z,6.70
2022-12-08T00:07:12.713Z,6.95
2022-12-08T00:09:42.088Z,7.72
2022-12-08T00:12:19.853Z,7.97
2022-12-08T00:14:55.955Z,7.07
2022-12-08T00:17:28.678Z,9.20
2022-12-08T00:19:56.952Z,8.20
2022-12-08T00:22:31.530Z,8.00
2022-12-08T00:24:58.540Z,7.15
2022-12-08T00:27:30.133Z,8.93
2022-12-08T00:29:57.294Z,12.50
2022-12-08T00:32:29.702Z,10.25
2022-12-08T00:34:59.910Z,8.55
2022-12-08T00:37:36.393Z,10.75
2022-12-08T00:40:07.640Z,12.23
2022-12-08T00:42:41.982Z,9.40
2022-12-08T00:45:09.653Z,11.00
2022-12-08T00:47:39.815Z,10.43
2022-12-08T00:50:33.776Z,9.93
2022-12-08T00:53:05.856Z,9.50
2022-12-08T00:55:40.654Z,10.65
2022-12-08T00:58:13.009Z,6.82
2022-12-08T01:00:56.384Z,6.97
2022-12-08T01:03:28.521Z,8.57
2022-12-08T01:06:01.142Z,6.97
2022-12-08T01:08:34.140Z,11.60
2022-12-08T01:11:15.674Z,7.32
2022-12-08T01:13:43.460Z,6.20
2022-12-08T01:16:54.705Z,7.20
2022-12-08T01:19:32.606Z,9.05
2022-12-08T01:22:05.509Z,12.27
2022-12-08T01:24:35.798Z,8.88
2022-12-08T01:27:18.576Z,9.10
2022-12-08T01:29:54.493Z,9.10
2022-12-08T01:32:31.165Z,10.85
2022-12-08T01:35:24.773Z,10.57
2022-12-08T01:40:50.579Z,13.98
2022-12-08T01:43:21.305Z,11.02
2022-12-08T01:45:51.469Z,10.95
2022-12-08T01:48:33.403Z,8.82
2022-12-08T01:51:09.712Z,10.55
2022-12-08T01:53:45.498Z,9.20
2022-12-08T01:56:35.881Z,8.30
2022-12-08T01:59:06.797Z,10.48
2022-12-08T02:01:42.684Z,8.05
2022-12-08T02:04:12.432Z,9.45
2022-12-08T02:09:20.235Z,9.55
2022-12-08T02:11:57.289Z,9.18
2022-12-08T02:17:19.391Z,10.43
2022-12-08T02:20:26.779Z,11.48
2022-12-08T02:23:19.707Z,12.20
2022-12-08T02:26:20.650Z,10.48
2022-12-08T02:29:07.846Z,10.82
2022-12-08T02:32:29.646Z,13.35
2022-12-08T02:35:17.541Z,9.05
2022-12-08T02:37:55.873Z,9.30
2022-12-08T02:40:32.207Z,9.15
2022-12-08T02:43:14.458Z,10.10
2022-12-08T02:45:55.891Z,8.93
2022-12-08T02:48:29.952Z,8.45
2022-12-08T02:50:59.626Z,10.43
2022-12-08T02:53:32.471Z,12.40
2022-12-08T02:56:39.550Z,8.45
2022-12-08T02:59:26.259Z,8.27
2022-12-08T03:02:46.050Z,7.40
2022-12-08T03:05:50.522Z,7.07
2022-12-08T03:08:46.371Z,9.63
2022-12-08T03:11:37.346Z,9.32
2022-12-08T03:16:49.446Z,10.55
2022-12-08T03:19:24.504Z,10.18
2022-12-08T03:22:00.466Z,10.52
2022-12-08T03:24:31.186Z,11.27
2022-12-08T03:27:23.852Z,8.25
2022-12-08T03:29:55.478Z,10.75
2022-12-08T03:32:37.764Z,11.25
2022-12-08T03:35:14.022Z,7.97
2022-12-08T03:37:41.868Z,7.30
2022-12-08T03:40:18.439Z,8.82
2022-12-08T03:42:48.121Z,8.05
2022-12-08T03:45:23.046Z,8.57
2022-12-08T03:47:55.890Z,6.07
2022-12-08T03:50:41.529Z,2.90
2022-12-08T03:53:17.863Z,9.07
2022-12-08T03:55:50.464Z,11.25
2022-12-08T03:58:20.123Z,10.23
2022-12-08T04:00:59.815Z,12.13
2022-12-08T04:03:34.690Z,10.10
2022-12-08T04:06:04.573Z,9.25
2022-12-08T04:08:34.084Z,10.93
2022-12-08T04:11:11.312Z,10.88
2022-12-08T04:13:40.313Z,8.57
2022-12-08T04:16:16.759Z,9.68
2022-12-08T04:18:54.889Z,11.20
2022-12-08T04:21:30.601Z,10.27
2022-12-08T04:24:01.238Z,9.43
2022-12-08T04:26:42.100Z,9.20
2022-12-08T04:29:09.309Z,10.65
2022-12-08T04:31:42.258Z,10.63
2022-12-08T04:34:11.908Z,9.27
2022-12-08T04:36:43.635Z,12.32
2022-12-08T04:39:13.244Z,7.95
2022-12-08T04:41:40.249Z,9.10
2022-12-08T04:44:09.845Z,8.05
2022-12-08T04:46:43.727Z,12.60
2022-12-08T04:49:12.063Z,9.48
2022-12-08T04:51:39.072Z,15.38
2022-12-08T04:54:06.078Z,12.70
2022-12-08T04:56:35.538Z,12.30
2022-12-08T04:59:04.779Z,10.65
2022-12-08T05:01:37.581Z,12.23
2022-12-08T05:06:45.301Z,11.82
2022-12-08T05:09:12.703Z,13.30
2022-12-08T05:11:48.632Z,12.07
2022-12-08T05:14:21.676Z,8.80
2022-12-08T05:16:51.397Z,10.07
2022-12-08T05:19:24.054Z,10.15
2022-12-08T05:21:53.598Z,10.70
2022-12-08T05:24:26.187Z,9.30
2022-12-08T05:26:55.523Z,8.60
2022-12-08T05:29:26.275Z,12.38
2022-12-08T05:31:58.545Z,10.65
2022-12-08T05:34:26.055Z,9.60
2022-12-08T05:36:55.633Z,9.77
2022-12-08T05:39:23.843Z,9.75
2022-12-08T05:42:12.000Z,11.23
2022-12-08T05:44:41.531Z,10.57
2022-12-08T05:47:08.849Z,11.40
2022-12-08T05:49:38.886Z,9.25
2022-12-08T05:52:06.603Z,12.70
2022-12-08T05:54:44.460Z,11.63
2022-12-08T05:57:11.808Z,11.88
2022-12-08T05:59:41.831Z,13.73
2022-12-08T06:02:22.907Z,7.63
2022-12-08T06:04:57.339Z,4.68
2022-12-08T06:07:32.284Z,5.43
2022-12-08T06:12:31.078Z,4.55
2022-12-08T06:14:58.258Z,6.38
2022-12-08T06:17:30.089Z,5.63
2022-12-08T06:19:59.703Z,8.43
2022-12-08T06:22:35.690Z,6.55
2022-12-08T06:25:16.409Z,8.85
2022-12-08T06:27:47.730Z,27.73
2022-12-08T06:30:30.938Z,22.42
2022-12-08T06:33:06.570Z,15.32
2022-12-08T06:35:48.728Z,27.48
2022-12-08T06:38:43.133Z,21.88
2022-12-08T06:41:12.163Z,21.35
2022-12-08T06:43:40.338Z,25.40
2022-12-08T06:46:13.148Z,15.38
2022-12-08T06:48:40.439Z,13.27
2022-12-08T06:51:09.253Z,13.68
2022-12-08T06:53:42.252Z,10.73
2022-12-08T06:56:22.473Z,16.55
2022-12-08T06:58:58.294Z,18.55
2022-12-08T07:01:38.897Z,12.90
2022-12-08T07:04:16.493Z,13.32
2022-12-08T07:06:49.350Z,14.00
2022-12-08T07:09:21.044Z,14.30
2022-12-08T07:11:50.168Z,17.15
2022-12-08T07:14:33.902Z,11.55
2022-12-08T07:17:06.966Z,16.20
2022-12-08T07:19:36.453Z,33.60
2022-12-08T07:22:26.285Z,34.58
2022-12-08T07:24:57.049Z,29.92
2022-12-08T07:27:26.443Z,26.35
2022-12-08T07:29:55.819Z,27.13
2022-12-08T07:32:39.183Z,23.75
2022-12-08T07:35:13.480Z,22.65
2022-12-08T07:37:58.693Z,6.25
2022-12-08T07:40:34.347Z,9.43
2022-12-08T07:43:04.328Z,10.90
2022-12-08T07:45:46.303Z,37.88
2022-12-08T07:48:30.482Z,12.73
2022-12-08T07:51:29.560Z,18.02
2022-12-08T07:54:00.172Z,15.60
2022-12-08T07:56:48.009Z,14.90
2022-12-08T07:59:15.385Z,22.30
2022-12-08T08:02:06.542Z,23.70
2022-12-08T08:04:46.103Z,28.13
2022-12-08T08:07:26.893Z,37.47
2022-12-08T08:09:58.775Z,14.48
2022-12-08T08:12:48.922Z,36.80
2022-12-08T08:15:21.597Z,16.85
2022-12-08T08:20:29.953Z,26.40
2022-12-08T08:23:03.716Z,22.17
2022-12-08T08:25:38.157Z,20.33
2022-12-08T08:28:05.763Z,17.27
2022-12-08T08:30:59.118Z,21.02
2022-12-08T08:33:35.787Z,17.92
2022-12-08T08:36:22.326Z,14.23
2022-12-08T08:38:57.390Z,14.98
2022-12-08T08:41:29.432Z,9.38
2022-12-08T08:44:08.126Z,18.67
2022-12-08T08:46:44.146Z,17.45
2022-12-08T08:49:13.844Z,12.05
2022-12-08T08:51:45.860Z,32.28
2022-12-08T08:54:14.362Z,14.32
2022-12-08T08:59:32.008Z,38.53
2022-12-08T09:02:14.412Z,29.83
2022-12-08T09:05:07.224Z,17.92
2022-12-08T09:07:49.067Z,18.88
2022-12-08T09:11:05.504Z,19.98
2022-12-08T09:13:34.762Z,26.92
2022-12-08T09:16:15.654Z,34.20
2022-12-08T09:18:46.452Z,22.00
2022-12-08T09:21:29.754Z,22.70
2022-12-08T09:24:17.441Z,14.10
2022-12-08T09:26:50.364Z,16.30
2022-12-08T09:29:17.929Z,20.98
2022-12-08T09:31:55.379Z,19.45
2022-12-08T09:34:33.826Z,18.90
2022-12-08T09:37:19.832Z,15.35
2022-12-08T09:39:56.877Z,21.10
2022-12-08T09:43:09.313Z,19.33
2022-12-08T09:46:14.249Z,17.13
2022-12-08T09:48:57.089Z,14.07
2022-12-08T09:54:58.324Z,17.00
2022-12-08T09:57:49.405Z,20.77
2022-12-08T10:01:28.526Z,20.70
2022-12-08T10:04:42.228Z,21.52
2022-12-08T10:07:50.640Z,25.70
2022-12-08T10:10:54.178Z,17.52
2022-12-08T10:13:42.417Z,17.83
2022-12-08T10:16:54.002Z,15.90
2022-12-08T10:19:34.545Z,21.95
2022-12-08T10:22:47.416Z,16.52
2022-12-08T10:26:11.573Z,21.58
2022-12-08T10:28:51.958Z,21.00
2022-12-08T10:32:00.008Z,24.52
2022-12-08T10:38:46.521Z,19.92
2022-12-08T10:41:27.963Z,19.63
2022-12-08T10:44:09.871Z,20.63
2022-12-08T10:46:53.906Z,23.02
2022-12-08T10:49:32.621Z,24.00
2022-12-08T10:52:12.776Z,21.90
2022-12-08T10:54:54.481Z,19.17
2022-12-08T10:57:26.396Z,18.27
2022-12-08T10:59:58.902Z,18.05
2022-12-08T11:02:44.797Z,25.25
2022-12-08T11:08:35.871Z,16.27
2022-12-08T11:11:29.612Z,16.92
2022-12-08T11:14:11.661Z,16.63
2022-12-08T11:19:43.068Z,15.63
2022-12-08T11:22:35.019Z,17.65
2022-12-08T11:25:53.400Z,14.07
2022-12-08T11:28:30.982Z,19.42
2022-12-08T11:31:15.126Z,17.67
2022-12-08T11:33:53.863Z,17.17
2022-12-08T11:36:50.658Z,21.85
2022-12-08T11:39:40.364Z,25.45
2022-12-08T11:42:25.419Z,24.65
2022-12-08T11:45:47.409Z,22.17
2022-12-08T11:48:41.184Z,23.88
2022-12-08T11:54:23.883Z,16.13
2022-12-08T11:57:29.461Z,18.67
2022-12-08T11:59:59.579Z,17.33
2022-12-08T12:02:51.657Z,15.45
2022-12-08T12:05:55.388Z,18.35
2022-12-08T12:08:44.333Z,22.25
2022-12-08T12:15:15.825Z,17.80
2022-12-08T12:22:06.679Z,14.15
2022-12-08T12:24:41.308Z,15.85
2022-12-08T12:27:29.113Z,16.08
2022-12-08T12:30:34.917Z,15.93
2022-12-08T12:33:21.010Z,15.70
2022-12-08T12:36:32.621Z,12.98
2022-12-08T12:39:16.864Z,11.05
2022-12-08T12:41:54.808Z,10.95
2022-12-08T12:44:38.330Z,14.68
2022-12-08T12:47:28.148Z,12.23
2022-12-08T12:50:32.407Z,14.52
2022-12-08T12:53:31.207Z,11.60
2022-12-08T12:56:24.974Z,8.98
2022-12-08T12:59:38.474Z,10.73
2022-12-08T13:02:51.044Z,11.45
2022-12-08T13:05:38.015Z,9.73
2022-12-08T13:08:17.013Z,13.73
2022-12-08T13:11:59.618Z,10.70
2022-12-08T13:14:37.852Z,12.85
2022-12-08T13:17:31.123Z,12.73
2022-12-08T13:20:16.551Z,18.98
2022-12-08T13:23:04.740Z,14.02
2022-12-08T13:26:19.944Z,13.57
2022-12-08T13:29:20.747Z,12.05
2022-12-08T13:32:25.938Z,15.25
2022-12-08T13:35:15.111Z,10.13
2022-12-08T13:37:55.122Z,8.73
2022-12-08T13:40:37.306Z,12.07
2022-12-08T13:43:45.181Z,12.02
2022-12-08T13:57:05.592Z,18.45
2022-12-08T13:59:46.462Z,11.00
2022-12-08T14:02:39.552Z,11.27
2022-12-08T14:05:41.115Z,11.75
2022-12-08T14:09:00.365Z,16.60
2022-12-08T14:11:43.723Z,15.35
2022-12-08T14:15:02.397Z,17.42
2022-12-08T14:17:28.868Z,17.27
2022-12-08T15:42:11.028Z,11.32
2022-12-08T15:44:50.575Z,13.63
2022-12-08T15:47:26.434Z,14.82
2022-12-08T15:49:53.820Z,18.23
2022-12-08T15:52:29.978Z,13.70
2022-12-08T15:55:21.425Z,14.43
2022-12-08T16:01:15.297Z,17.95
2022-12-08T16:04:27.604Z,11.25
2022-12-08T16:09:36.328Z,15.27
2022-12-08T16:13:20.014Z,13.63
2022-12-08T16:16:04.235Z,15.50
2022-12-08T16:18:40.564Z,12.30
2022-12-08T16:21:31.523Z,12.55
2022-12-08T16:24:09.484Z,9.63
2022-12-08T16:27:57.954Z,13.38
2022-12-08T16:29:47.154Z,17.05
2022-12-08T16:32:24.569Z,17.02
2022-12-08T16:34:59.029Z,11.68
2022-12-08T16:37:30.814Z,19.98
2022-12-08T16:39:59.076Z,22.88
2022-12-08T16:42:47.791Z,15.63
2022-12-08T16:45:26.945Z,13.05
2022-12-08T16:50:34.044Z,16.73
2022-12-08T16:53:13.616Z,12.80
2022-12-08T16:55:57.269Z,18.60
2022-12-08T16:58:35.733Z,16.90
2022-12-08T17:01:16.239Z,18.20
2022-12-08T17:03:56.260Z,16.83
2022-12-08T17:06:33.138Z,16.58
2022-12-08T17:09:11.408Z,18.60
2022-12-08T17:11:50.982Z,20.65
2022-12-08T17:14:28.101Z,22.58
2022-12-08T17:16:58.748Z,21.67
2022-12-08T17:19:30.839Z,17.48
2022-12-08T17:22:04.371Z,20.33
2022-12-08T17:24:34.053Z,10.98
2022-12-08T17:27:18.849Z,15.70
2022-12-08T17:30:41.170Z,16.35
2022-12-08T17:33:29.436Z,15.68
2022-12-08T17:36:11.373Z,14.57
2022-12-08T17:38:44.205Z,17.83
2022-12-08T17:41:22.605Z,14.73
2022-12-08T17:43:52.701Z,15.02
2022-12-08T17:46:23.245Z,16.40
2022-12-08T17:51:33.416Z,18.52
2022-12-08T17:54:10.756Z,17.02
2022-12-08T17:56:37.818Z,17.60
2022-12-08T17:59:05.055Z,17.75
2022-12-08T18:01:41.464Z,14.70
2022-12-08T18:04:14.755Z,13.85
2022-12-08T18:06:44.865Z,18.05
2022-12-08T18:09:41.891Z,11.75
2022-12-08T18:12:22.297Z,16.60
2022-12-08T18:14:54.068Z,21.25
2022-12-08T18:17:27.681Z,18.63
2022-12-08T18:19:57.320Z,22.27
2022-12-08T18:22:30.332Z,17.75
2022-12-08T18:25:00.208Z,18.92
2022-12-08T18:27:45.515Z,16.55
2022-12-08T18:30:22.277Z,17.63
2022-12-08T18:33:05.797Z,16.25
2022-12-08T18:35:42.345Z,17.02
2022-12-08T18:40:48.410Z,14.88
2022-12-08T18:43:25.417Z,12.93
2022-12-08T18:46:21.707Z,17.50
2022-12-08T18:49:00.440Z,20.13
2022-12-08T18:51:38.239Z,24.42
2022-12-08T18:54:05.518Z,17.15
2022-12-08T18:56:56.374Z,21.70
2022-12-08T18:59:32.453Z,16.80
2022-12-08T19:02:36.102Z,18.83
2022-12-08T19:05:13.987Z,18.80
2022-12-08T19:07:42.767Z,14.52
2022-12-08T19:10:16.752Z,19.77
2022-12-08T19:13:18.704Z,16.08
2022-12-08T19:15:58.173Z,19.88
2022-12-08T19:18:30.907Z,28.48
2022-12-08T19:21:25.299Z,18.17
2022-12-08T19:23:58.752Z,12.57
2022-12-08T19:26:36.675Z,19.77
2022-12-08T19:29:12.129Z,14.35
2022-12-08T19:31:47.022Z,16.83
2022-12-08T19:34:16.815Z,16.50
2022-12-08T19:36:46.374Z,18.73
2022-12-08T19:39:38.673Z,24.70
2022-12-08T19:42:41.289Z,21.88
2022-12-08T19:45:36.497Z,21.98
2022-12-08T19:48:06.230Z,21.88
2022-12-08T19:50:44.971Z,26.38
2022-12-08T19:53:14.965Z,19.75
2022-12-08T19:55:46.316Z,26.52
2022-12-08T19:58:22.666Z,24.67
2022-12-08T20:01:26.149Z,16.35
2022-12-08T20:03:43.677Z,17.25
2022-12-08T20:06:30.341Z,15.23
2022-12-08T20:12:21.485Z,16.95
2022-12-08T20:15:01.993Z,19.23
2022-12-08T20:18:20.523Z,14.48
2022-12-08T20:24:11.178Z,11.85
2022-12-08T20:27:18.519Z,10.57
2022-12-08T20:37:28.947Z,9.88
2022-12-08T20:43:46.461Z,8.63
2022-12-08T20:46:42.786Z,17.30
2022-12-08T20:49:34.702Z,16.67
2022-12-08T20:52:06.726Z,19.98
2022-12-08T20:54:44.231Z,13.88
2022-12-08T20:57:20.983Z,17.60
2022-12-08T20:59:48.364Z,16.17
2022-12-08T21:02:24.446Z,18.60
2022-12-08T21:05:08.933Z,19.48
2022-12-08T21:07:45.435Z,17.55
2022-12-08T21:10:27.691Z,21.65
2022-12-08T21:13:03.674Z,17.90
2022-12-08T21:15:57.577Z,23.33
2022-12-08T21:18:37.489Z,16.23
2022-12-08T21:21:10.087Z,14.48
2022-12-08T21:23:41.729Z,17.40
2022-12-08T21:26:24.237Z,15.13
2022-12-08T21:28:58.878Z,21.90
2022-12-08T21:31:35.128Z,20.90
2022-12-08T21:34:21.211Z,17.15
2022-12-08T21:37:47.152Z,11.57
2022-12-08T21:39:59.959Z,13.00
2022-12-08T21:42:45.599Z,17.05
2022-12-08T21:45:25.134Z,11.15
2022-12-08T21:48:11.460Z,11.23
2022-12-08T21:50:49.695Z,38.88
2022-12-08T21:53:29.402Z,11.70
2022-12-08T21:57:03.440Z,8.32
2022-12-08T21:59:11.618Z,13.02
2022-12-08T22:01:41.329Z,8.45
2022-12-08T22:04:29.684Z,2.80
2022-12-08T22:07:02.910Z,6.65
2022-12-08T22:09:32.850Z,3.72
2022-12-08T22:12:05.024Z,7.50
2022-12-08T22:14:45.400Z,12.70
2022-12-08T22:17:24.784Z,11.43
2022-12-08T22:19:56.301Z,9.50
2022-12-08T22:22:34.874Z,4.93
2022-12-08T22:25:13.688Z,8.43
2022-12-08T22:27:55.942Z,9.77
2022-12-08T22:30:26.233Z,13.57
2022-12-08T22:32:55.573Z,10.07
2022-12-08T22:35:33.722Z,7.95
2022-12-08T22:38:05.626Z,6.60
2022-12-08T22:40:53.920Z,7.50
2022-12-08T22:43:28.869Z,9.75
2022-12-08T22:46:10.008Z,6.43
2022-12-08T22:48:43.789Z,8.02
2022-12-08T22:51:20.322Z,7.40
2022-12-08T22:53:48.289Z,10.98
2022-12-08T22:56:19.175Z,9.82
2022-12-08T22:58:49.714Z,8.88
2022-12-08T23:01:23.799Z,9.15
2022-12-08T23:03:54.898Z,7.50
2022-12-08T23:06:29.106Z,9.00
2022-12-08T23:09:05.292Z,9.85
2022-12-08T23:11:37.868Z,11.25
2022-12-08T23:14:14.380Z,8.52
2022-12-08T23:16:58.574Z,5.93
2022-12-08T23:19:29.615Z,11.23
2022-12-08T23:22:14.543Z,12.35
2022-12-08T23:24:55.870Z,9.00
2022-12-08T23:27:35.768Z,11.40
2022-12-08T23:30:18.131Z,11.27
2022-12-08T23:32:48.068Z,9.40
2022-12-08T23:35:19.645Z,9.93
2022-12-08T23:38:05.099Z,15.65
2022-12-08T23:40:37.947Z,10.65
2022-12-08T23:43:06.080Z,13.45
2022-12-08T23:45:35.497Z,11.25
2022-12-08T23:48:06.600Z,9.55
2022-12-08T23:50:40.994Z,10.65
2022-12-08T23:53:19.886Z,9.07
2022-12-08T23:55:49.749Z,12.75
2022-12-08T23:58:19.300Z,11.27
